createdAt,value
2023-01-05T00:01:50.007Z,13.30
2023-01-05T00:04:18.769Z,13.30
2023-01-05T00:06:47.039Z,13.00
2023-01-05T00:09:19.263Z,13.00
2023-01-05T00:12:05.276Z,13.10
2023-01-05T00:14:49.035Z,13.20
2023-01-05T00:17:38.517Z,13.00
2023-01-05T00:20:31.698Z,13.30
2023-01-05T00:22:59.958Z,13.10
2023-01-05T00:25:31.098Z,13.10
2023-01-05T00:27:59.419Z,12.90
2023-01-05T00:32:59.772Z,13.20
2023-01-05T00:35:28.081Z,13.30
2023-01-05T00:37:56.429Z,13.10
2023-01-05T00:40:24.798Z,13.80
2023-01-05T00:42:53.029Z,13.60
2023-01-05T00:45:22.127Z,13.40
2023-01-05T00:47:51.933Z,13.60
2023-01-05T00:50:23.538Z,13.70
2023-01-05T00:52:51.851Z,13.10
2023-01-05T00:55:20.212Z,13.10
2023-01-05T00:57:48.395Z,13.10
2023-01-05T01:00:19.840Z,13.40
2023-01-05T01:02:48.609Z,13.00
2023-01-05T01:05:17.040Z,13.10
2023-01-05T01:07:48.682Z,13.00
2023-01-05T01:10:17.142Z,13.10
2023-01-05T01:12:45.375Z,12.70
2023-01-05T01:15:13.645Z,12.70
2023-01-05T01:17:41.860Z,13.30
2023-01-05T01:20:11.219Z,12.90
2023-01-05T01:22:39.526Z,12.80
2023-01-05T01:25:10.450Z,12.90
2023-01-05T01:27:38.677Z,12.60
2023-01-05T01:30:08.875Z,12.50
2023-01-05T01:32:37.193Z,13.00
2023-01-05T01:35:06.230Z,13.20
2023-01-05T01:37:34.510Z,13.00
2023-01-05T01:40:02.785Z,12.90
2023-01-05T01:42:32.380Z,12.80
2023-01-05T01:45:02.563Z,13.00
2023-01-05T01:47:43.161Z,13.10
2023-01-05T02:00:21.408Z,13.00
2023-01-05T02:02:52.813Z,12.80
2023-01-05T02:05:24.678Z,12.60
2023-01-05T02:07:52.880Z,12.80
2023-01-05T02:10:37.740Z,12.70
2023-01-05T02:13:31.071Z,12.40
2023-01-05T02:16:08.785Z,12.60
2023-01-05T02:19:07.668Z,12.90
2023-01-05T02:21:49.092Z,12.80
2023-01-05T02:24:51.272Z,13.10
2023-01-05T02:27:49.632Z,12.90
2023-01-05T02:31:01.215Z,13.40
2023-01-05T02:33:42.403Z,13.00
2023-01-05T02:36:24.993Z,12.90
2023-01-05T02:39:03.504Z,12.80
2023-01-05T02:41:38.247Z,12.40
2023-01-05T02:44:09.519Z,12.30
2023-01-05T02:46:39.128Z,12.30
2023-01-05T02:49:08.407Z,12.10
2023-01-05T02:51:42.056Z,12.30
2023-01-05T02:54:18.076Z,12.30
2023-01-05T02:56:55.733Z,12.70
2023-01-05T02:59:28.551Z,12.30
2023-01-05T03:02:02.054Z,12.60
2023-01-05T03:04:34.557Z,13.00
2023-01-05T03:07:05.952Z,13.00
2023-01-05T03:09:39.250Z,13.10
2023-01-05T03:12:33.352Z,13.10
2023-01-05T03:15:07.591Z,12.90
2023-01-05T03:17:44.355Z,12.50
2023-01-05T03:20:14.690Z,12.90
2023-01-05T03:23:04.334Z,12.90
2023-01-05T03:25:53.129Z,12.90
2023-01-05T03:28:42.843Z,13.10
2023-01-05T03:31:36.622Z,12.90
2023-01-05T03:34:30.203Z,13.10
2023-01-05T03:37:04.609Z,12.90
2023-01-05T03:39:35.212Z,12.60
2023-01-05T03:42:03.779Z,12.70
2023-01-05T03:44:31.971Z,12.90
2023-01-05T03:47:00.583Z,13.20
2023-01-05T03:49:30.180Z,13.00
2023-01-05T03:51:58.522Z,12.90
2023-01-05T03:54:26.726Z,12.20
2023-01-05T03:56:54.979Z,12.50
2023-01-05T03:59:23.259Z,12.50
2023-01-05T04:01:51.609Z,12.20
2023-01-05T04:04:19.893Z,12.90
2023-01-05T04:06:49.494Z,13.00
2023-01-05T04:09:17.684Z,13.20
2023-01-05T04:11:45.941Z,13.00
2023-01-05T04:14:14.119Z,12.80
2023-01-05T04:16:42.323Z,13.10
2023-01-05T04:19:11.767Z,13.20
2023-01-05T04:21:39.985Z,13.00
2023-01-05T04:24:11.086Z,12.50
2023-01-05T04:26:39.543Z,12.40
2023-01-05T04:29:07.736Z,12.70
2023-01-05T04:31:35.979Z,13.10
2023-01-05T04:34:04.248Z,12.90
2023-01-05T04:36:32.482Z,13.00
2023-01-05T04:39:00.727Z,12.90
2023-01-05T04:41:30.281Z,12.80
2023-01-05T04:43:58.492Z,12.40
2023-01-05T04:46:26.784Z,12.30
2023-01-05T04:48:55.048Z,12.50
2023-01-05T04:51:23.277Z,12.70
2023-01-05T04:53:51.537Z,12.30
2023-01-05T04:56:19.785Z,12.80
2023-01-05T04:58:49.396Z,12.50
2023-01-05T05:01:17.698Z,12.60
2023-01-05T05:03:46.035Z,12.70
2023-01-05T05:06:14.299Z,12.60
2023-01-05T05:08:42.531Z,13.00
2023-01-05T05:11:10.774Z,13.40
2023-01-05T05:13:39.041Z,13.40
2023-01-05T05:16:09.652Z,12.80
2023-01-05T05:18:38.007Z,13.40
2023-01-05T05:21:06.673Z,13.10
2023-01-05T05:23:34.965Z,12.90
2023-01-05T05:26:03.227Z,12.30
2023-01-05T05:28:31.487Z,12.40
2023-01-05T05:30:59.747Z,12.90
2023-01-05T05:33:29.360Z,12.70
2023-01-05T05:35:57.572Z,13.60
2023-01-05T05:38:25.839Z,13.30
2023-01-05T05:40:54.497Z,12.70
2023-01-05T05:43:22.743Z,12.60
2023-01-05T05:45:51.194Z,12.70
2023-01-05T05:48:19.856Z,12.80
2023-01-05T05:50:49.443Z,13.30
2023-01-05T05:53:17.714Z,13.50
2023-01-05T05:55:49.855Z,12.80
2023-01-05T05:58:18.455Z,12.70
2023-01-05T06:00:47.021Z,13.10
2023-01-05T06:03:15.468Z,14.10
2023-01-05T06:05:43.871Z,12.80
2023-01-05T06:08:13.449Z,12.50
2023-01-05T06:10:41.666Z,12.00
2023-01-05T06:13:09.961Z,11.90
2023-01-05T06:15:38.217Z,12.40
2023-01-05T06:18:06.583Z,12.50
2023-01-05T06:20:35.231Z,12.60
2023-01-05T06:28:02.478Z,13.10
2023-01-05T06:37:56.734Z,12.70
2023-01-05T06:40:25.100Z,12.90
2023-01-05T06:42:54.693Z,13.30
2023-01-05T06:45:23.064Z,13.10
2023-01-05T06:47:51.277Z,12.60
2023-01-05T06:50:19.721Z,12.20
2023-01-05T06:55:16.488Z,11.60
2023-01-05T06:57:44.673Z,12.00
2023-01-05T07:00:16.161Z,12.20
2023-01-05T07:02:44.417Z,12.20
2023-01-05T07:05:12.671Z,12.30
2023-01-05T07:07:40.979Z,12.50
2023-01-05T07:10:10.540Z,12.10
2023-01-05T07:12:38.879Z,12.60
2023-01-05T07:15:08.934Z,12.30
2023-01-05T07:17:38.686Z,12.60
2023-01-05T07:20:08.646Z,13.50
2023-01-05T07:22:37.090Z,13.40
2023-01-05T07:25:05.918Z,13.20
2023-01-05T07:27:34.452Z,12.80
2023-01-05T07:30:02.713Z,12.80
2023-01-05T07:32:30.907Z,12.40
2023-01-05T07:35:00.510Z,12.40
2023-01-05T07:37:28.787Z,12.90
2023-01-05T07:39:56.990Z,13.10
2023-01-05T07:42:26.121Z,13.00
2023-01-05T07:44:54.414Z,12.90
2023-01-05T07:49:51.187Z,11.90
2023-01-05T07:52:20.792Z,11.50
2023-01-05T07:54:48.994Z,12.10
2023-01-05T07:57:17.341Z,11.80
2023-01-05T07:59:45.525Z,11.90
2023-01-05T08:02:13.884Z,11.40
2023-01-05T08:04:42.267Z,11.40
2023-01-05T08:07:11.569Z,12.00
2023-01-05T08:09:58.979Z,11.90
2023-01-05T08:12:28.382Z,11.90
2023-01-05T08:14:56.702Z,11.60
2023-01-05T08:17:24.956Z,11.90
2023-01-05T08:19:53.169Z,12.80
2023-01-05T08:22:21.400Z,11.90
2023-01-05T08:24:52.241Z,12.30
2023-01-05T08:27:20.475Z,12.20
2023-01-05T08:29:48.723Z,11.50
2023-01-05T08:32:16.924Z,12.00
2023-01-05T08:34:47.958Z,12.50
2023-01-05T08:37:20.222Z,12.40
2023-01-05T08:39:49.794Z,12.20
2023-01-05T08:47:17.065Z,12.90
2023-01-05T08:49:47.184Z,12.20
2023-01-05T08:52:15.467Z,13.00
2023-01-05T08:54:43.879Z,12.50
2023-01-05T08:57:13.496Z,12.50
2023-01-05T08:59:41.914Z,12.10
2023-01-05T09:02:13.136Z,12.50
2023-01-05T09:04:41.584Z,12.70
2023-01-05T09:07:09.870Z,12.50
2023-01-05T09:09:38.108Z,13.00
2023-01-05T09:12:07.474Z,12.30
2023-01-05T09:14:37.143Z,12.30
2023-01-05T09:34:30.651Z,12.60
2023-01-05T09:36:58.891Z,14.20
2023-01-05T09:39:27.302Z,14.30
2023-01-05T09:41:58.888Z,14.00
2023-01-05T09:44:32.151Z,13.30
2023-01-05T09:47:07.231Z,13.50
2023-01-05T09:49:36.588Z,14.00
2023-01-05T09:52:10.799Z,13.30
2023-01-05T09:54:40.581Z,13.60
2023-01-05T09:57:18.781Z,14.20
2023-01-05T09:59:50.235Z,14.00
2023-01-05T10:02:28.283Z,14.00
2023-01-05T10:04:58.151Z,13.70
2023-01-05T10:07:39.128Z,14.00
2023-01-05T10:10:21.493Z,13.70
2023-01-05T10:13:03.342Z,13.30
2023-01-05T10:15:39.571Z,13.80
2023-01-05T10:18:15.246Z,13.80
2023-01-05T10:21:00.568Z,13.90
2023-01-05T10:23:47.764Z,13.60
2023-01-05T10:26:25.397Z,13.60
2023-01-05T10:29:03.456Z,13.10
2023-01-05T10:31:53.633Z,13.50
2023-01-05T10:34:33.189Z,13.70
2023-01-05T10:37:27.565Z,13.50
2023-01-05T10:40:12.108Z,13.20
2023-01-05T10:42:54.515Z,13.10
2023-01-05T10:45:23.147Z,13.80
2023-01-05T10:47:51.851Z,13.70
2023-01-05T10:50:36.656Z,14.20
2023-01-05T10:53:11.854Z,14.30
2023-01-05T10:55:52.275Z,14.50
2023-01-05T10:58:24.533Z,14.20
2023-01-05T11:00:56.685Z,14.70
2023-01-05T11:04:14.141Z,14.20
2023-01-05T11:06:31.256Z,13.60
2023-01-05T11:09:21.837Z,14.00
2023-01-05T11:11:59.326Z,13.90
2023-01-05T11:14:29.303Z,13.80
2023-01-05T11:17:04.988Z,13.40
2023-01-05T11:19:38.099Z,13.50
2023-01-05T11:22:32.508Z,13.40
2023-01-05T11:25:25.368Z,14.10
2023-01-05T11:28:15.876Z,14.00
2023-01-05T11:31:00.365Z,13.90
2023-01-05T11:33:31.113Z,13.50
2023-01-05T11:35:59.914Z,13.80
2023-01-05T11:38:32.358Z,14.30
2023-01-05T11:41:02.031Z,14.90
2023-01-05T11:43:34.038Z,14.10
2023-01-05T11:46:05.704Z,14.40
2023-01-05T11:48:37.062Z,14.70
2023-01-05T11:51:05.857Z,14.60
2023-01-05T11:53:42.006Z,14.60
2023-01-05T11:56:22.324Z,14.40
2023-01-05T11:58:52.380Z,14.70
2023-01-05T12:01:55.431Z,14.30
2023-01-05T12:04:38.959Z,14.60
2023-01-05T12:07:30.145Z,14.70
2023-01-05T12:10:33.363Z,14.40
2023-01-05T12:13:14.433Z,15.10
2023-01-05T12:16:13.701Z,14.90
2023-01-05T12:19:11.121Z,14.10
2023-01-05T12:21:46.145Z,14.10
2023-01-05T12:24:53.890Z,14.60
2023-01-05T12:27:43.929Z,15.10
2023-01-05T12:34:05.127Z,14.40
2023-01-05T12:36:51.034Z,14.00
2023-01-05T12:39:51.634Z,14.20
2023-01-05T12:42:47.439Z,14.70
2023-01-05T12:45:45.611Z,13.80
2023-01-05T12:48:20.072Z,13.70
2023-01-05T12:50:55.861Z,13.70
2023-01-05T12:53:39.634Z,14.10
2023-01-05T12:56:21.133Z,13.70
2023-01-05T12:59:07.967Z,13.90
2023-01-05T13:01:43.580Z,13.90
2023-01-05T13:04:34.309Z,13.60
2023-01-05T13:07:11.564Z,14.00
2023-01-05T13:09:40.269Z,14.60
2023-01-05T13:12:13.157Z,14.40
2023-01-05T13:14:52.750Z,14.10
2023-01-05T13:17:27.175Z,14.50
2023-01-05T13:20:03.696Z,14.10
2023-01-05T13:22:37.113Z,14.20
2023-01-05T13:25:15.290Z,14.50
2023-01-05T13:27:44.180Z,14.50
2023-01-05T13:30:23.904Z,14.70
2023-01-05T13:33:38.058Z,14.90
2023-01-05T13:36:23.230Z,14.60
2023-01-05T13:39:21.436Z,14.50
2023-01-05T13:42:28.566Z,14.50
2023-01-05T13:45:28.345Z,14.40
2023-01-05T13:48:45.262Z,15.40
2023-01-05T13:51:47.727Z,15.60
2023-01-05T13:54:21.362Z,15.10
2023-01-05T13:56:50.704Z,14.60
2023-01-05T13:59:34.952Z,14.10
2023-01-05T14:02:06.348Z,13.90
2023-01-05T14:04:37.187Z,14.20
2023-01-05T14:07:12.672Z,14.40
2023-01-05T14:09:55.655Z,13.60
2023-01-05T14:12:48.827Z,14.40
2023-01-05T14:15:41.964Z,14.30
2023-01-05T14:18:12.489Z,14.70
2023-01-05T14:20:48.872Z,15.30
2023-01-05T14:23:58.267Z,15.50
2023-01-05T14:27:06.834Z,14.70
2023-01-05T14:30:27.582Z,15.30
2023-01-05T14:33:04.427Z,15.60
2023-01-05T14:35:37.295Z,15.80
2023-01-05T14:38:14.713Z,15.50
2023-01-05T14:40:46.207Z,15.10
2023-01-05T14:43:30.690Z,15.40
2023-01-05T14:46:05.538Z,14.90
2023-01-05T14:48:37.968Z,15.40
2023-01-05T14:51:24.707Z,15.00
2023-01-05T14:53:54.580Z,14.80
2023-01-05T14:56:26.946Z,14.50
2023-01-05T14:59:05.849Z,14.50
2023-01-05T15:04:21.444Z,14.90
2023-01-05T15:07:32.541Z,14.80
2023-01-05T15:10:32.797Z,14.20
2023-01-05T15:13:23.900Z,14.10
2023-01-05T15:16:00.918Z,14.10
2023-01-05T15:19:12.420Z,13.70
2023-01-05T15:22:13.422Z,13.40
2023-01-05T15:25:39.241Z,14.00
2023-01-05T15:29:07.296Z,13.50
2023-01-05T15:31:41.801Z,13.50
2023-01-05T15:34:22.709Z,14.30
2023-01-05T15:36:58.132Z,14.40
2023-01-05T15:39:31.867Z,14.40
2023-01-05T15:42:06.173Z,14.50
2023-01-05T15:44:41.248Z,14.50
2023-01-05T15:47:11.806Z,13.70
2023-01-05T15:49:41.019Z,13.30
2023-01-05T15:52:21.570Z,13.80
2023-01-05T15:55:05.286Z,14.10
2023-01-05T15:57:33.537Z,13.80
2023-01-05T16:00:01.796Z,13.70
2023-01-05T16:02:31.641Z,14.30
2023-01-05T16:05:15.619Z,14.70
2023-01-05T16:07:54.773Z,14.60
2023-01-05T16:10:30.092Z,14.20
2023-01-05T16:13:18.280Z,14.70
2023-01-05T16:15:51.161Z,14.80
2023-01-05T16:18:24.539Z,14.30
2023-01-05T16:20:55.942Z,14.30
2023-01-05T16:23:36.232Z,13.70
2023-01-05T16:26:06.588Z,14.20
2023-01-05T16:28:34.798Z,14.20
2023-01-05T16:31:15.503Z,14.10
2023-01-05T16:33:46.010Z,14.50
2023-01-05T16:36:20.392Z,14.10
2023-01-05T16:38:49.471Z,14.20
2023-01-05T16:41:26.787Z,13.80
2023-01-05T16:43:58.451Z,14.50
2023-01-05T16:46:37.186Z,14.50
2023-01-05T16:49:38.858Z,14.10
2023-01-05T16:52:23.858Z,13.70
2023-01-05T16:55:27.548Z,13.80
2023-01-05T16:57:58.639Z,14.10
2023-01-05T17:00:40.323Z,13.80
2023-01-05T17:03:31.337Z,14.40
2023-01-05T17:06:02.066Z,14.60
2023-01-05T17:08:35.897Z,14.80
2023-01-05T17:11:08.480Z,14.90
2023-01-05T17:13:42.493Z,14.50
2023-01-05T17:16:12.816Z,14.40
2023-01-05T17:18:41.255Z,14.00
2023-01-05T17:21:13.656Z,13.60
2023-01-05T17:23:46.887Z,13.10
2023-01-05T17:26:21.222Z,13.10
2023-01-05T17:28:51.969Z,13.10
2023-01-05T17:31:20.235Z,13.70
2023-01-05T17:33:48.557Z,14.10
2023-01-05T17:36:17.686Z,14.20
2023-01-05T17:38:46.671Z,14.10
2023-01-05T17:41:16.881Z,13.70
2023-01-05T17:43:45.890Z,14.00
2023-01-05T17:46:21.362Z,14.10
2023-01-05T17:48:50.066Z,13.30
2023-01-05T17:51:18.345Z,13.80
2023-01-05T17:53:46.593Z,13.50
2023-01-05T17:56:18.623Z,13.70
2023-01-05T17:58:48.299Z,14.20
2023-01-05T18:01:18.033Z,14.00
2023-01-05T18:06:19.468Z,14.10
2023-01-05T18:08:47.948Z,13.10
2023-01-05T18:11:17.493Z,13.60
2023-01-05T18:13:46.143Z,12.70
2023-01-05T18:16:14.986Z,12.70
2023-01-05T18:18:45.049Z,13.10
2023-01-05T18:21:13.482Z,13.20
2023-01-05T18:23:41.662Z,13.40
2023-01-05T18:26:11.653Z,13.90
2023-01-05T18:28:39.875Z,13.30
2023-01-05T18:31:12.712Z,14.20
2023-01-05T18:33:41.354Z,13.50
2023-01-05T18:36:14.881Z,13.90
2023-01-05T18:38:43.532Z,13.20
2023-01-05T18:41:12.778Z,13.10
2023-01-05T18:43:41.266Z,12.90
2023-01-05T18:46:09.554Z,13.20
2023-01-05T18:48:37.778Z,12.80
2023-01-05T18:51:08.065Z,12.50
2023-01-05T18:53:40.210Z,13.00
2023-01-05T18:56:10.151Z,12.60
2023-01-05T18:58:38.560Z,13.10
2023-01-05T19:01:12.858Z,13.30
2023-01-05T19:03:41.519Z,14.00
2023-01-05T19:06:13.887Z,13.30
2023-01-05T19:08:45.264Z,13.30
2023-01-05T19:11:15.858Z,13.30
2023-01-05T19:13:45.319Z,13.60
2023-01-05T19:16:15.218Z,13.60
2023-01-05T19:18:43.931Z,13.60
2023-01-05T19:21:12.155Z,13.60
2023-01-05T19:23:40.347Z,13.10
2023-01-05T19:26:10.394Z,12.70
2023-01-05T19:31:10.430Z,13.40
2023-01-05T19:33:39.940Z,13.80
2023-01-05T19:36:11.779Z,13.80
2023-01-05T19:38:40.505Z,13.40
2023-01-05T19:41:14.146Z,14.20
2023-01-05T19:43:42.871Z,13.30
2023-01-05T19:46:14.868Z,13.40
2023-01-05T19:48:44.297Z,13.80
2023-01-05T19:51:16.797Z,14.50
2023-01-05T19:53:45.915Z,13.90
2023-01-05T19:56:17.005Z,13.70
2023-01-05T19:58:45.683Z,13.80
2023-01-05T20:01:16.810Z,13.70
2023-01-05T20:03:46.822Z,13.50
2023-01-05T20:06:19.056Z,14.20
2023-01-05T20:08:52.481Z,13.90
2023-01-05T20:11:36.635Z,14.50
2023-01-05T20:14:06.046Z,14.50
2023-01-05T20:16:34.786Z,14.50
2023-01-05T20:19:03.455Z,13.80
2023-01-05T20:21:32.562Z,13.60
2023-01-05T20:24:01.971Z,13.90
2023-01-05T20:26:32.240Z,13.90
2023-01-05T20:29:01.401Z,13.70
2023-01-05T20:31:32.851Z,14.40
2023-01-05T20:34:03.934Z,14.60
2023-01-05T20:36:32.749Z,12.80
2023-01-05T20:39:05.987Z,12.70
2023-01-05T20:41:38.883Z,13.80
2023-01-05T20:44:08.740Z,14.50
2023-01-05T20:46:40.169Z,14.80
2023-01-05T20:49:08.697Z,14.20
2023-01-05T20:51:37.376Z,14.40
2023-01-05T20:54:08.983Z,13.70
2023-01-05T20:56:41.664Z,13.80
2023-01-05T20:59:15.711Z,14.20
2023-01-05T21:01:44.819Z,13.90
2023-01-05T21:04:13.944Z,14.10
2023-01-05T21:06:43.095Z,14.70
2023-01-05T21:09:12.138Z,15.00
2023-01-05T21:11:42.841Z,14.90
2023-01-05T21:14:13.575Z,14.40
2023-01-05T21:16:46.238Z,14.10
2023-01-05T21:19:17.925Z,14.00
2023-01-05T21:21:47.232Z,14.10
2023-01-05T21:24:16.887Z,14.20
2023-01-05T21:26:46.718Z,13.80
2023-01-05T21:29:16.172Z,13.70
2023-01-05T21:31:44.699Z,14.00
2023-01-05T21:34:13.997Z,14.00
2023-01-05T21:36:45.910Z,14.10
2023-01-05T21:39:19.806Z,13.40
2023-01-05T21:42:08.386Z,14.20
2023-01-05T21:44:36.935Z,13.80
2023-01-05T21:47:06.803Z,13.40
2023-01-05T21:49:35.256Z,13.40
2023-01-05T21:52:21.425Z,13.50
2023-01-05T21:55:07.371Z,13.60
2023-01-05T21:57:37.214Z,14.30
2023-01-05T22:00:07.580Z,13.90
2023-01-05T22:02:35.942Z,14.40
2023-01-05T22:05:04.584Z,14.00
2023-01-05T22:07:32.840Z,14.20
2023-01-05T22:10:01.118Z,14.20
2023-01-05T22:12:29.326Z,14.70
2023-01-05T22:14:59.036Z,14.70
2023-01-05T22:17:27.264Z,14.40
2023-01-05T22:19:55.525Z,14.90
2023-01-05T22:22:24.117Z,15.00
2023-01-05T22:24:52.407Z,15.30
2023-01-05T22:27:20.792Z,15.40
2023-01-05T22:29:49.054Z,15.50
2023-01-05T22:32:18.637Z,14.80
2023-01-05T22:34:47.570Z,13.50
2023-01-05T22:37:16.328Z,13.80
2023-01-05T22:39:44.565Z,13.90
2023-01-05T22:42:12.758Z,13.70
2023-01-05T22:44:41.022Z,13.30
2023-01-05T22:47:09.247Z,13.40
2023-01-05T22:49:38.846Z,13.80
2023-01-05T22:52:07.395Z,13.70
2023-01-05T22:54:35.639Z,13.60
2023-01-05T22:57:03.913Z,13.70
2023-01-05T22:59:32.183Z,14.40
2023-01-05T23:02:00.505Z,14.20
2023-01-05T23:04:28.773Z,14.60
2023-01-05T23:06:58.392Z,14.60
2023-01-05T23:09:26.591Z,14.00
2023-01-05T23:11:54.789Z,14.20
2023-01-05T23:14:23.020Z,14.20
2023-01-05T23:16:51.273Z,14.10
2023-01-05T23:19:19.827Z,13.80
2023-01-05T23:21:48.722Z,13.60
2023-01-05T23:24:18.318Z,13.70
2023-01-05T23:26:46.681Z,13.50
2023-01-05T23:29:14.897Z,13.10
2023-01-05T23:31:43.173Z,13.90
2023-01-05T23:34:11.381Z,13.90
2023-01-05T23:36:39.605Z,13.80
2023-01-05T23:39:07.812Z,13.20
2023-01-05T23:41:37.389Z,13.90
2023-01-05T23:44:07.922Z,13.40
2023-01-05T23:46:36.226Z,13.60
2023-01-05T23:49:04.988Z,13.30
2023-01-05T23:51:33.243Z,14.00
2023-01-05T23:54:01.627Z,14.00
2023-01-05T23:56:32.197Z,14.20
2023-01-05T23:59:05.415Z,13.60
